createdAt,value
2023-04-18T00:00:06.733Z,10.40
2023-04-18T00:03:13.902Z,10.40
2023-04-18T00:06:16.089Z,10.30
2023-04-18T00:09:18.254Z,10.40
2023-04-18T00:12:20.494Z,10.30
2023-04-18T00:15:22.580Z,10.20
2023-04-18T00:18:24.793Z,10.20
2023-04-18T00:21:28.071Z,10.20
2023-04-18T00:24:30.550Z,10.30
2023-04-18T00:27:32.883Z,10.30
2023-04-18T00:30:35.180Z,10.10
2023-04-18T00:33:39.892Z,10.10
2023-04-18T00:36:42.463Z,10.10
2023-04-18T00:39:44.698Z,10.20
2023-04-18T00:42:47.015Z,10.20
2023-04-18T00:45:49.792Z,10.20
2023-04-18T00:48:52.200Z,10.10
2023-04-18T00:51:56.264Z,10.20
2023-04-18T00:54:58.664Z,10.20
2023-04-18T00:58:00.862Z,10.10
2023-04-18T01:01:03.050Z,10.20
2023-04-18T01:04:05.527Z,10.10
2023-04-18T01:07:09.178Z,10.10
2023-04-18T01:10:11.318Z,9.90
2023-04-18T01:13:18.994Z,9.90
2023-04-18T01:16:21.427Z,10.00
2023-04-18T01:19:25.295Z,10.10
2023-04-18T01:22:28.605Z,10.10
2023-04-18T01:25:30.691Z,9.90
2023-04-18T01:28:37.240Z,9.90
2023-04-18T01:31:40.442Z,10.00
2023-04-18T01:34:42.586Z,10.00
2023-04-18T01:37:44.865Z,10.00
2023-04-18T01:40:48.140Z,10.00
2023-04-18T01:43:50.399Z,10.00
2023-04-18T01:46:52.930Z,10.10
2023-04-18T01:49:55.284Z,10.10
2023-04-18T01:52:57.550Z,10.00
2023-04-18T01:55:59.813Z,10.10
2023-04-18T01:59:02.050Z,10.10
2023-04-18T02:02:04.355Z,10.00
2023-04-18T02:05:08.836Z,10.20
2023-04-18T02:08:14.814Z,10.10
2023-04-18T02:11:19.550Z,10.20
2023-04-18T02:14:21.950Z,10.20
2023-04-18T02:17:24.198Z,10.20
2023-04-18T02:20:27.096Z,10.20
2023-04-18T02:23:29.176Z,10.30
2023-04-18T02:26:31.286Z,10.10
2023-04-18T02:29:33.701Z,10.10
2023-04-18T02:32:36.386Z,10.30
2023-04-18T02:35:39.356Z,10.10
2023-04-18T02:38:41.674Z,10.20
2023-04-18T02:41:43.808Z,10.20
2023-04-18T02:44:45.960Z,10.10
2023-04-18T02:47:55.338Z,10.20
2023-04-18T02:51:05.840Z,10.20
2023-04-18T02:54:10.302Z,10.10
2023-04-18T02:57:30.291Z,10.20
2023-04-18T03:00:48.347Z,10.10
2023-04-18T03:04:09.454Z,10.10
2023-04-18T03:07:16.550Z,10.20
2023-04-18T03:10:19.256Z,10.10
2023-04-18T03:13:21.975Z,10.00
2023-04-18T03:16:24.344Z,10.00
2023-04-18T03:19:26.751Z,10.00
2023-04-18T03:22:30.949Z,9.90
2023-04-18T03:25:34.618Z,10.00
2023-04-18T03:28:37.804Z,10.00
2023-04-18T03:31:40.423Z,10.00
2023-04-18T03:34:44.357Z,9.90
2023-04-18T03:37:47.006Z,10.00
2023-04-18T03:40:56.803Z,10.00
2023-04-18T03:44:06.880Z,10.00
2023-04-18T03:47:12.046Z,10.10
2023-04-18T03:50:17.045Z,10.00
2023-04-18T03:53:21.362Z,10.00
2023-04-18T03:56:24.304Z,10.00
2023-04-18T03:59:28.294Z,10.10
2023-04-18T04:02:31.190Z,10.10
2023-04-18T04:05:33.785Z,10.10
2023-04-18T04:08:35.868Z,9.90
2023-04-18T04:11:38.540Z,9.90
2023-04-18T04:14:43.308Z,10.00
2023-04-18T04:17:46.663Z,9.90
2023-04-18T04:20:49.914Z,9.90
2023-04-18T04:24:07.572Z,10.10
2023-04-18T04:27:14.133Z,10.10
2023-04-18T04:30:20.122Z,10.00
2023-04-18T04:33:22.890Z,9.90
2023-04-18T04:36:25.835Z,10.00
2023-04-18T04:39:28.325Z,10.00
2023-04-18T04:42:50.451Z,10.00
2023-04-18T04:45:57.989Z,9.90
2023-04-18T04:49:00.813Z,10.00
2023-04-18T04:52:02.951Z,9.90
2023-04-18T04:55:05.712Z,9.90
2023-04-18T04:58:09.796Z,9.90
2023-04-18T05:01:30.444Z,9.90
2023-04-18T05:04:33.959Z,9.90
2023-04-18T05:07:36.114Z,9.90
2023-04-18T05:10:38.148Z,10.00
2023-04-18T05:13:40.334Z,10.00
2023-04-18T05:16:42.637Z,9.80
2023-04-18T05:19:44.907Z,9.90
2023-04-18T05:22:47.111Z,9.90
2023-04-18T05:25:49.209Z,10.00
2023-04-18T05:28:52.362Z,10.00
2023-04-18T05:31:55.309Z,10.10
2023-04-18T05:34:57.483Z,10.00
2023-04-18T05:37:59.804Z,10.00
2023-04-18T05:41:01.997Z,10.20
2023-04-18T05:44:05.793Z,10.10
2023-04-18T05:47:08.501Z,10.10
2023-04-18T05:50:10.926Z,10.10
2023-04-18T05:53:13.151Z,10.00
2023-04-18T05:56:15.503Z,10.00
2023-04-18T05:59:17.657Z,10.00
2023-04-18T06:02:19.977Z,10.00
2023-04-18T06:05:22.271Z,9.90
2023-04-18T06:08:24.709Z,9.90
2023-04-18T06:11:26.865Z,9.90
2023-04-18T06:14:29.037Z,9.90
2023-04-18T06:17:31.250Z,10.00
2023-04-18T06:20:33.418Z,9.90
2023-04-18T06:23:35.484Z,10.00
2023-04-18T06:26:37.804Z,10.00
2023-04-18T06:29:40.288Z,10.20
2023-04-18T06:32:42.744Z,10.30
2023-04-18T06:35:44.947Z,10.30
2023-04-18T06:38:47.091Z,10.40
2023-04-18T06:41:49.486Z,10.40
2023-04-18T06:45:03.409Z,10.40
2023-04-18T06:48:05.984Z,10.40
2023-04-18T06:51:08.057Z,10.50
2023-04-18T06:54:10.224Z,10.60
2023-04-18T06:57:12.543Z,10.60
2023-04-18T07:00:15.773Z,10.70
2023-04-18T07:03:18.418Z,10.70
2023-04-18T07:06:20.792Z,10.80
2023-04-18T07:09:22.877Z,10.90
2023-04-18T07:12:25.278Z,10.90
2023-04-18T07:15:29.855Z,11.00
2023-04-18T07:18:38.022Z,11.10
2023-04-18T07:21:40.846Z,11.00
2023-04-18T07:24:42.858Z,11.00
2023-04-18T07:27:46.049Z,11.00
2023-04-18T07:30:48.455Z,11.00
2023-04-18T07:33:50.722Z,11.10
2023-04-18T07:36:52.831Z,11.20
2023-04-18T07:39:54.917Z,11.20
2023-04-18T07:42:57.121Z,11.20
2023-04-18T07:45:59.300Z,11.30
2023-04-18T07:49:03.958Z,11.30
2023-04-18T07:52:06.798Z,11.40
2023-04-18T07:55:09.307Z,11.40
2023-04-18T07:58:11.677Z,11.50
2023-04-18T08:01:13.792Z,11.70
2023-04-18T08:04:16.371Z,11.90
2023-04-18T08:07:18.784Z,12.10
2023-04-18T08:10:23.189Z,12.10
2023-04-18T08:13:26.184Z,12.00
2023-04-18T08:16:29.259Z,12.00
2023-04-18T08:19:31.338Z,11.80
2023-04-18T08:22:33.968Z,11.80
2023-04-18T08:25:36.011Z,11.80
2023-04-18T08:28:38.221Z,11.70
2023-04-18T08:31:40.349Z,11.90
2023-04-18T08:34:42.551Z,11.80
2023-04-18T08:37:44.653Z,11.80
2023-04-18T08:40:47.670Z,11.70
2023-04-18T08:43:52.167Z,11.70
2023-04-18T08:46:54.341Z,11.80
2023-04-18T08:49:57.198Z,11.90
2023-04-18T08:53:00.696Z,11.90
2023-04-18T08:56:02.730Z,12.00
2023-04-18T08:59:07.252Z,12.10
2023-04-18T09:02:09.975Z,12.30
2023-04-18T09:05:14.466Z,12.40
2023-04-18T09:08:23.738Z,12.80
2023-04-18T09:11:30.671Z,12.90
2023-04-18T09:14:32.792Z,12.90
2023-04-18T09:17:46.207Z,13.20
2023-04-18T09:20:48.227Z,13.40
2023-04-18T09:23:50.478Z,13.80
2023-04-18T09:26:54.083Z,14.10
2023-04-18T09:29:57.928Z,15.30
2023-04-18T09:33:01.096Z,15.90
2023-04-18T09:36:23.964Z,15.90
2023-04-18T09:39:28.854Z,15.70
2023-04-18T09:42:36.261Z,15.40
2023-04-18T09:45:38.735Z,15.20
2023-04-18T09:48:41.316Z,15.10
2023-04-18T09:51:44.908Z,15.00
2023-04-18T09:54:48.426Z,14.80
2023-04-18T09:57:52.769Z,14.70
2023-04-18T10:00:55.693Z,14.60
2023-04-18T10:04:01.560Z,14.40
2023-04-18T10:07:04.019Z,14.30
2023-04-18T10:10:06.724Z,14.10
2023-04-18T10:13:11.707Z,14.10
2023-04-18T10:16:14.564Z,14.30
2023-04-18T10:19:21.334Z,14.10
2023-04-18T10:22:27.814Z,14.10
2023-04-18T10:25:39.112Z,14.30
2023-04-18T10:28:58.146Z,14.20
2023-04-18T10:32:06.318Z,14.20
2023-04-18T10:35:08.752Z,14.10
2023-04-18T10:38:16.603Z,14.10
2023-04-18T10:41:32.001Z,14.10
2023-04-18T10:44:34.067Z,14.30
2023-04-18T10:47:36.380Z,14.60
2023-04-18T11:03:33.987Z,14.80
2023-04-18T11:06:51.009Z,14.70
2023-04-18T11:09:56.767Z,14.90
2023-04-18T11:12:58.811Z,14.90
2023-04-18T11:16:00.886Z,15.00
2023-04-18T11:19:23.279Z,15.10
2023-04-18T11:22:25.386Z,15.10
2023-04-18T11:25:36.331Z,15.30
2023-04-18T11:28:41.462Z,15.50
2023-04-18T11:31:50.706Z,15.60
2023-04-18T11:34:53.829Z,15.60
2023-04-18T11:37:55.851Z,15.70
2023-04-18T11:40:57.965Z,15.70
2023-04-18T11:43:59.979Z,15.50
2023-04-18T11:47:02.082Z,15.60
2023-04-18T11:50:06.054Z,15.60
2023-04-18T11:53:08.172Z,15.70
2023-04-18T11:56:13.687Z,15.80
2023-04-18T11:59:15.769Z,15.90
2023-04-18T12:02:17.990Z,15.80
2023-04-18T12:05:35.100Z,15.60
2023-04-18T12:08:37.265Z,15.70
2023-04-18T12:11:41.739Z,15.70
2023-04-18T12:14:43.770Z,15.40
2023-04-18T12:17:48.842Z,15.60
2023-04-18T12:20:52.519Z,15.50
2023-04-18T12:23:54.539Z,15.50
2023-04-18T12:26:56.782Z,15.40
2023-04-18T12:29:58.760Z,15.40
2023-04-18T12:33:04.592Z,15.50
2023-04-18T12:36:07.114Z,15.70
2023-04-18T12:39:09.038Z,15.70
2023-04-18T12:42:11.098Z,15.70
2023-04-18T12:45:14.684Z,15.80
2023-04-18T12:48:16.754Z,15.70
2023-04-18T12:51:18.778Z,15.70
2023-04-18T12:54:20.759Z,15.90
2023-04-18T12:57:22.916Z,16.20
2023-04-18T13:00:28.045Z,16.30
2023-04-18T13:03:30.210Z,16.30
2023-04-18T13:06:32.564Z,16.40
2023-04-18T13:09:34.557Z,16.60
2023-04-18T13:12:36.736Z,16.60
2023-04-18T13:15:38.820Z,16.80
2023-04-18T13:18:40.988Z,16.90
2023-04-18T13:21:42.956Z,16.90
2023-04-18T13:24:45.228Z,16.80
2023-04-18T13:27:47.216Z,16.80
2023-04-18T13:30:49.325Z,16.90
2023-04-18T13:33:51.435Z,16.90
2023-04-18T13:36:53.450Z,16.80
2023-04-18T13:39:55.881Z,16.70
2023-04-18T13:42:57.860Z,16.70
2023-04-18T13:45:59.888Z,16.80
2023-04-18T13:49:02.151Z,16.70
2023-04-18T13:52:04.994Z,16.80
2023-04-18T13:55:07.693Z,16.90
2023-04-18T13:58:10.265Z,16.90
2023-04-18T14:01:12.449Z,16.90
2023-04-18T14:04:15.004Z,17.00
2023-04-18T14:07:17.370Z,17.10
2023-04-18T14:10:19.573Z,17.00
2023-04-18T14:13:21.689Z,16.80
2023-04-18T14:16:24.110Z,16.80
2023-04-18T14:19:27.671Z,16.70
2023-04-18T14:22:30.203Z,16.60
2023-04-18T14:25:32.611Z,16.60
2023-04-18T14:28:34.802Z,16.50
2023-04-18T14:31:37.404Z,16.60
2023-04-18T14:34:39.557Z,16.60
2023-04-18T14:37:41.750Z,16.50
2023-04-18T14:40:44.293Z,16.40
2023-04-18T14:43:46.301Z,16.50
2023-04-18T14:46:49.834Z,16.50
2023-04-18T14:49:51.942Z,16.60
2023-04-18T14:52:54.434Z,16.70
2023-04-18T14:55:56.609Z,16.90
2023-04-18T14:59:02.414Z,16.90
2023-04-18T15:02:04.993Z,16.90
2023-04-18T15:05:08.680Z,17.00
2023-04-18T15:08:10.927Z,17.00
2023-04-18T15:11:12.981Z,17.10
2023-04-18T15:14:15.377Z,17.00
2023-04-18T15:17:17.774Z,17.00
2023-04-18T15:20:21.313Z,17.00
2023-04-18T15:23:25.432Z,17.00
2023-04-18T15:26:27.660Z,16.90
2023-04-18T15:29:29.770Z,17.00
2023-04-18T15:32:32.310Z,16.90
2023-04-18T15:35:36.913Z,16.90
2023-04-18T15:38:39.415Z,16.80
2023-04-18T15:41:41.470Z,16.80
2023-04-18T15:44:43.697Z,16.90
2023-04-18T15:47:46.270Z,16.90
2023-04-18T15:50:51.850Z,16.90
2023-04-18T15:53:54.389Z,16.80
2023-04-18T15:56:56.448Z,16.70
2023-04-18T15:59:58.529Z,16.70
2023-04-18T16:03:00.746Z,16.80
2023-04-18T16:06:03.535Z,16.70
2023-04-18T16:09:05.658Z,16.70
2023-04-18T16:12:08.167Z,16.70
2023-04-18T16:15:12.861Z,16.60
2023-04-18T16:18:15.036Z,16.60
2023-04-18T16:21:17.340Z,16.50
2023-04-18T16:24:19.700Z,16.50
2023-04-18T16:27:21.852Z,16.50
2023-04-18T16:30:24.051Z,16.50
2023-04-18T16:33:26.500Z,16.50
2023-04-18T16:36:33.693Z,16.50
2023-04-18T16:39:35.940Z,16.60
2023-04-18T16:42:38.246Z,16.50
2023-04-18T16:45:40.452Z,16.60
2023-04-18T16:48:42.592Z,16.50
2023-04-18T16:51:44.677Z,16.50
2023-04-18T16:54:46.821Z,16.50
2023-04-18T16:57:49.358Z,16.50
2023-04-18T17:00:51.483Z,16.50
2023-04-18T17:03:53.708Z,16.50
2023-04-18T17:06:59.412Z,16.50
2023-04-18T17:10:01.925Z,16.40
2023-04-18T17:13:04.676Z,16.40
2023-04-18T17:16:07.934Z,16.40
2023-04-18T17:19:10.628Z,16.30
2023-04-18T17:22:12.792Z,16.20
2023-04-18T17:25:14.837Z,16.10
2023-04-18T17:28:17.264Z,16.00
2023-04-18T17:31:22.586Z,16.00
2023-04-18T17:34:24.779Z,15.90
2023-04-18T17:37:27.228Z,15.90
2023-04-18T17:40:29.492Z,15.90
2023-04-18T17:43:34.227Z,15.90
2023-04-18T17:46:36.691Z,15.90
2023-04-18T17:49:39.138Z,15.90
2023-04-18T17:52:41.437Z,15.90
2023-04-18T17:55:43.652Z,15.80
2023-04-18T17:58:45.764Z,15.80
2023-04-18T18:01:47.964Z,15.70
2023-04-18T18:04:50.211Z,15.60
2023-04-18T18:07:52.313Z,15.60
2023-04-18T18:10:55.004Z,15.60
2023-04-18T18:13:57.802Z,15.50
2023-04-18T18:16:59.967Z,15.40
2023-04-18T18:20:02.262Z,15.30
2023-04-18T18:23:04.424Z,15.30
2023-04-18T18:26:06.671Z,15.20
2023-04-18T18:29:08.788Z,15.30
2023-04-18T18:32:10.895Z,15.20
2023-04-18T18:35:13.248Z,15.20
2023-04-18T18:38:15.272Z,15.20
2023-04-18T18:41:18.650Z,15.10
2023-04-18T18:44:20.717Z,15.00
2023-04-18T18:47:23.928Z,15.00
2023-04-18T18:50:26.282Z,14.90
2023-04-18T18:53:28.561Z,14.90
2023-04-18T18:56:30.676Z,14.90
2023-04-18T18:59:33.047Z,14.90
2023-04-18T19:02:35.439Z,14.80
2023-04-18T19:05:37.913Z,14.80
2023-04-18T19:08:40.008Z,14.70
2023-04-18T19:11:42.207Z,14.80
2023-04-18T19:14:44.384Z,14.70
2023-04-18T19:17:48.065Z,14.70
2023-04-18T19:20:51.057Z,14.60
2023-04-18T19:23:53.383Z,14.60
2023-04-18T19:26:55.481Z,14.60
2023-04-18T19:29:57.678Z,14.60
2023-04-18T19:33:00.203Z,14.50
2023-04-18T19:36:05.500Z,14.50
2023-04-18T19:39:08.523Z,14.40
2023-04-18T19:42:10.745Z,14.30
2023-04-18T19:45:13.620Z,14.40
2023-04-18T19:48:15.764Z,14.30
2023-04-18T19:51:20.046Z,14.30
2023-04-18T19:54:22.238Z,14.30
2023-04-18T19:57:24.689Z,14.30
2023-04-18T20:00:27.128Z,14.30
2023-04-18T20:03:29.659Z,14.30
2023-04-18T20:06:32.316Z,14.20
2023-04-18T20:09:35.064Z,14.30
2023-04-18T20:12:37.922Z,14.20
2023-04-18T20:15:40.385Z,14.10
2023-04-18T20:18:42.671Z,14.00
2023-04-18T20:21:44.908Z,14.00
2023-04-18T20:24:47.228Z,14.00
2023-04-18T20:27:49.259Z,13.90
2023-04-18T20:30:51.536Z,13.90
2023-04-18T20:33:53.734Z,13.90
2023-04-18T20:36:56.105Z,13.90
2023-04-18T20:39:58.867Z,13.90
2023-04-18T20:43:03.455Z,13.80
2023-04-18T20:46:05.511Z,13.90
2023-04-18T20:49:08.626Z,13.70
2023-04-18T20:52:10.707Z,13.70
2023-04-18T20:55:13.674Z,13.70
2023-04-18T20:58:15.869Z,13.70
2023-04-18T21:01:18.614Z,13.70
2023-04-18T21:04:29.576Z,13.60
2023-04-18T21:07:31.787Z,13.60
2023-04-18T21:10:34.014Z,13.60
2023-04-18T21:13:35.964Z,13.50
2023-04-18T21:16:38.257Z,13.60
2023-04-18T21:19:40.288Z,13.50
2023-04-18T21:22:42.279Z,13.50
2023-04-18T21:25:44.430Z,13.40
2023-04-18T21:28:59.570Z,13.50
2023-04-18T21:32:01.595Z,13.40
2023-04-18T21:35:03.634Z,13.40
2023-04-18T21:38:05.702Z,13.40
2023-04-18T21:41:07.781Z,13.50
2023-04-18T21:44:09.777Z,13.40
2023-04-18T21:47:11.779Z,13.40
2023-04-18T21:50:13.908Z,13.40
2023-04-18T21:53:15.877Z,13.40
2023-04-18T21:56:18.078Z,13.40
2023-04-18T21:59:20.504Z,13.30
2023-04-18T22:02:22.536Z,13.30
2023-04-18T22:05:24.565Z,13.40
2023-04-18T22:08:26.622Z,13.20
2023-04-18T22:11:28.676Z,13.30
2023-04-18T22:14:31.100Z,13.30
2023-04-18T22:17:33.268Z,13.40
2023-04-18T22:20:35.856Z,13.30
2023-04-18T22:23:38.121Z,13.20
2023-04-18T22:26:40.447Z,13.20
2023-04-18T22:29:42.506Z,13.00
2023-04-18T22:32:44.746Z,13.10
2023-04-18T22:35:47.872Z,13.10
2023-04-18T22:38:49.824Z,13.10
2023-04-18T22:41:51.854Z,13.10
2023-04-18T22:44:53.823Z,13.10
2023-04-18T22:47:55.838Z,13.00
2023-04-18T22:50:57.873Z,13.00
2023-04-18T22:53:59.920Z,12.90
2023-04-18T22:57:02.021Z,13.00
2023-04-18T23:00:04.447Z,12.90
2023-04-18T23:03:06.604Z,12.90
2023-04-18T23:06:08.785Z,12.90
2023-04-18T23:09:10.762Z,12.90
2023-04-18T23:12:12.782Z,12.90
2023-04-18T23:15:14.922Z,12.90
2023-04-18T23:18:17.006Z,12.80
2023-04-18T23:21:19.023Z,12.80
2023-04-18T23:24:21.017Z,12.90
2023-04-18T23:27:23.011Z,12.70
2023-04-18T23:30:26.238Z,12.80
2023-04-18T23:33:28.324Z,12.80
2023-04-18T23:36:30.397Z,12.70
2023-04-18T23:39:32.565Z,12.60
2023-04-18T23:42:34.665Z,12.60
2023-04-18T23:45:36.692Z,12.70
2023-04-18T23:48:38.737Z,12.70
2023-04-18T23:51:40.943Z,12.70
2023-04-18T23:54:43.022Z,12.70
2023-04-18T23:57:44.953Z,12.70
